WEATHER DATA

YESTERDAY
Time Temp. Dewp. Hum. Wind dir Wind speed Wind gust Bar. 1h Prec. 24h Prec.
00:05 4.1 3.5 96 326 1.1 2.8 1009 0.5480 0.1000
00:15 4.1 3.5 96 334 1.1 2.5 1009.2 0.6850 0.4000
00:25 4.1 3.5 96 328 1.4 3.1 1009 1.0960 0.8000
00:35 4.1 3.5 96 337 1.1 2.8 1008.9 1.3700 1.2000
00:45 4.1 3.5 96 329 1.1 2.2 1008.5 1.7810 1.6000
00:55 4.1 3.7 97 335 1.4 4.2 1008.8 2.4660 2.5000
01:05 4.1 3.7 97 322 1.4 3.6 1008.2 2.8770 3.2000
01:15 4.1 3.7 97 319 1.7 4.4 1008 3.2880 3.8000
01:26 4.1 3.7 97 323 2.2 6.1 1007.8 3.6990 4.7000
01:36 4.1 3.7 97 315 2.5 5 1008 3.6990 5.1000
01:46 4.2 3.8 97 318 2.5 6.7 1007.9 3.4250 5.5000
01:56 4.2 3.8 97 323 1.9 4.2 1007.9 3.0140 5.8000
02:06 4.3 3.9 97 334 1.4 4.2 1008 2.4660 6.0000
02:17 4.3 3.9 97 319 1.9 5.3 1007.8 2.1920 6.4000
02:26 4.3 3.9 97 334 1.4 4.4 1007.8 1.9180 6.9000
02:36 4.3 3.9 97 326 1.7 4.7 1007.4 2.0550 7.3000
02:46 4.4 4 97 313 1.9 4.4 1007.5 2.1920 7.8000
02:57 4.4 4 97 317 1.9 4.4 1007.3 2.1920 8.0000
03:06 4.4 4 97 308 1.9 5 1007.3 1.9180 8.1000
03:16 4.4 4 97 305 1.7 3.9 1007.4 1.5070 8.1000
03:27 4.4 4.1 98 321 1.4 3.9 1007.2 1.2330 8.2000
03:36 4.4 4.1 98 33 0.6 1.1 1006.9 0.6850 8.2000
03:46 4.5 4.2 98 346 0.8 3.1 1007.1 0.2740 8.2000
03:56 4.5 4.2 98 322 1.4 4.4 1007 0.2740 8.2000
04:07 4.5 4.2 98 318 1.9 4.4 1006.9 0.1370 8.2000
04:16 4.6 4.3 98 326 1.7 3.6 1006.7 0.1370 8.2000
04:26 4.6 4.3 98 323 2.2 5.3 1006.9 0.0000 8.2000
04:37 4.6 4.3 98 322 1.7 3.6 1006.9 0.1370 8.4000
04:49 4.6 4.3 98 321 1.1 3.1 1007 0.4110 8.6000
04:59 4.6 4.3 98 321 1.4 4.2 1006.8 0.4110 8.6000
05:08 4.6 4.3 98 319 1.7 5 1006.9 0.5480 8.8000
05:19 4.6 4.3 98 315 1.7 4.2 1006.8 0.5480 8.8000
05:29 4.6 4.3 98 329 1.7 4.4 1006.9 0.5480 8.9000
05:38 4.6 4.3 98 319 1.4 3.6 1006.8 0.4110 8.9000
05:48 4.6 4.5 99 310 2.2 5 1006.7 0.2740 8.9000
05:59 4.7 4.6 99 319 1.4 4.4 1006.5 0.1370 8.9000
06:09 4.7 4.6 99 317 1.7 3.1 1006.4 0.2740 9.1000
06:18 4.8 4.7 99 315 1.7 4.7 1006.2 0.2740 9.1000
06:29 4.8 4.7 99 317 1.7 3.6 1006.4 0.1370 9.1000
06:39 4.9 4.8 99 317 1.4 4.4 1006.4 0.1370 9.1000
06:49 4.9 4.8 99 319 1.9 4.7 1006.4 0.2740 9.2000
06:54 5 4.9 99 326 1.9 6.1 1006.7 0.2740 9.2000
07:04 5.1 5 99 325 1.7 4.2 1006.7 0.1370 9.2000
07:14 5.1 5 99 321 1.4 3.9 1006.7 0.1370 9.2000
07:24 5.2 5.1 99 315 1.4 3.9 1006.7 0.1370 9.2000
07:34 5.2 5.1 99 315 1.4 3.1 1006.8 0.1370 9.2000
07:44 5.2 5.1 99 315 1.4 4.2 1006.8 0.0000 9.2000
07:54 5.3 5.2 99 315 1.7 4.2 1006.7 0.0000 9.2000
08:04 5.3 5.2 99 321 1.1 2.5 1006.8 0.1370 9.3000
08:14 5.3 5.2 99 315 1.4 3.6 1006.8 0.1370 9.3000
08:24 5.3 5.2 99 317 1.7 3.1 1007.2 0.1370 9.3000
08:34 5.3 5.2 99 316 1.1 2.5 1007.2 0.1370 9.3000
08:44 5.4 5.3 99 312 1.4 6.1 1006.8 0.1370 9.3000
08:54 5.4 5.3 99 305 1.1 3.1 1006.8 0.2740 9.5000
09:04 5.4 5.3 99 312 1.1 2.5 1006.7 0.1370 9.5000
09:14 5.4 5.3 99 315 1.1 2.2 1007 0.1370 9.5000
09:24 5.4 5.3 99 305 1.4 3.6 1006.9 0.1370 9.5000
09:34 5.5 5.5 100 305 1.4 3.1 1007 0.2740 9.6000
09:44 5.5 5.5 100 312 1.4 2.8 1006.8 0.2740 9.6000
09:54 5.6 5.6 100 308 1.1 2.8 1006.8 0.1370 9.6000
10:04 5.6 5.6 100 315 1.4 3.1 1007.1 0.1370 9.6000
10:14 5.7 5.7 100 307 1.4 3.9 1007 0.2740 9.7000
10:24 5.7 5.7 100 315 1.4 4.2 1006.8 0.1370 9.7000
10:35 5.8 5.8 100 317 1.7 4.7 1006.7 0.1370 9.7000
10:44 5.9 5.9 100 311 1.4 3.1 1006.6 0.1370 9.7000
10:54 5.9 5.9 100 313 1.4 3.1 1006.5 0.2740 9.9000
11:05 6 6 100 313 1.7 4.2 1006.5 0.2740 9.9000
11:15 6 6 100 313 1.4 4.2 1006.2 0.1370 9.9000
11:24 6.1 6.1 100 313 1.4 4.2 1006.3 0.1370 9.9000
11:34 6.1 6.1 100 315 1.4 3.6 1006.2 0.1370 9.9000
11:45 6.2 6.2 100 317 1.4 2.8 1006.2 0.1370 9.9000
11:55 6.3 6.3 100 307 1.1 2.5 1006 0.0000 9.9000
12:04 6.3 6.3 100 311 0.8 3.1 1006.1 0.0000 9.9000
12:15 6.4 6.4 100 315 1.1 3.1 1005.7 0.0000 9.9000
12:25 6.5 6.5 100 309 1.1 3.1 1005.6 0.0000 9.9000
12:35 6.6 6.6 100 313 1.1 2.8 1005.7 0.0000 9.9000
12:45 6.7 6.7 100 303 0.8 1.9 1005.8 0.0000 9.9000
12:55 6.7 6.7 100 302 1.1 3.1 1005.7 0.0000 9.9000
13:05 6.7 6.7 100 303 0.8 3.6 1005.6 0.0000 9.9000
13:15 6.8 6.8 100 308 1.1 3.6 1005.7 0.0000 9.9000
13:25 6.8 6.8 100 311 1.1 2.8 1005.7 0.0000 9.9000
13:35 6.8 6.8 100 292 0.6 1.7 1005.8 0.0000 9.9000
13:45 6.9 6.9 100 299 0.8 2.2 1005.7 0.0000 9.9000
13:55 6.9 6.9 100 296 0.8 2.2 1005.6 0.1370 10.0000
14:05 6.9 6.9 100 303 0.8 2.5 1006 0.2740 10.1000
14:15 6.9 6.9 100 298 0.8 1.9 1005.9 0.2740 10.1000
14:25 6.9 6.9 100 298 1.1 2.8 1005.7 0.2740 10.1000
14:36 6.9 6.9 100 302 1.1 3.6 1005.8 0.2740 10.1000
14:45 6.9 6.8 99 305 1.1 2.5 1005.8 0.2740 10.1000
14:55 6.9 6.8 99 311 1.4 3.6 1005.9 0.2740 10.3000
15:11 6.9 6.8 99 300 1.7 4.4 1005.9 0.4110 10.6000
15:21 6.9 6.8 99 309 1.1 2.8 1005.9 0.5480 10.7000
15:30 6.9 6.8 99 307 1.4 2.8 1006 0.6850 10.8000
15:41 6.8 6.8 100 303 0.8 2.5 1006 0.6850 10.8000
15:51 6.8 6.8 100 316 1.1 2.8 1005.9 0.6850 11.0000
16:01 6.9 6.9 100 308 1.1 2.5 1005.9 0.6850 11.0000
16:10 6.9 6.9 100 308 1.1 3.9 1005.9 0.4110 11.0000
16:21 6.9 6.9 100 308 0.8 2.2 1006 0.4110 11.1000
16:31 6.9 6.9 100 309 0.8 1.9 1006.1 0.5480 11.4000
16:41 6.9 6.9 100 283 0.8 2.5 1005.9 0.6850 11.5000
16:51 6.9 6.9 100 300 1.1 2.8 1006 0.9590 11.9000
17:01 6.9 6.9 100 297 1.1 5 1005.9 1.2330 12.2000
17:11 6.9 6.9 100 295 1.1 2.8 1006.1 1.5070 12.5000
17:20 6.9 6.9 100 299 1.1 2.8 1006.1 1.6440 12.8000
17:31 6.9 6.9 100 305 1.1 2.5 1006.1 1.7810 13.2000
17:41 6.9 6.9 100 303 1.1 2.8 1006.2 1.9180 13.4000
17:51 6.9 6.9 100 303 1.7 4.2 1006.3 2.0550 14.0000
18:01 7 7 100 303 1.4 4.2 1006.3 2.3290 14.5000
18:11 7 7 100 294 1.1 1.9 1006.5 2.3290 14.8000
18:21 7 7 100 280 0.8 1.7 1006.4 2.4660 15.2000
18:31 7 7 100 279 1.4 2.5 1006.4 2.4660 15.6000
18:41 7 7 100 257 0.8 1.7 1006.3 2.4660 15.9000
18:51 6.9 6.9 100 244 0.8 1.9 1006.2 2.0550 16.0000
19:01 6.9 6.9 100 278 1.4 2.5 1006.2 1.6440 16.2000
19:12 6.9 6.9 100 270 0.8 1.7 1006.4 1.5070 16.3000
19:21 6.9 6.9 100 270 0.8 2.2 1006.6 1.3700 16.6000
19:31 6.9 6.9 100 270 0.8 2.2 1006.3 1.0960 16.7000
19:41 6.9 6.9 100 284 0.8 1.7 1006.5 1.3700 17.3000
19:52 6.9 6.9 100 270 0.8 1.7 1006.6 1.5070 17.6000
20:01 7 7 100 270 1.1 2.8 1006.5 1.7810 18.0000
20:11 7 7 100 279 1.1 3.9 1006.5 1.7810 18.1000
20:22 7 7 100 280 0.8 1.9 1006.5 1.7810 18.4000
20:32 7 7 100 285 1.7 3.6 1006.7 1.9180 18.6000
20:41 7.1 7.1 100 302 1.9 5.3 1006.8 1.6440 18.9000
20:52 7.1 7.1 100 309 1.9 4.4 1006.9 1.6440 19.2000
21:02 7.1 7.1 100 307 1.4 3.9 1006.9 1.7810 19.7000
21:12 7.1 7.1 100 289 1.4 3.6 1006.9 1.9180 20.0000
21:21 7.1 7.1 100 292 1.4 3.9 1007.2 2.0550 20.4000
21:32 7.1 7.1 100 293 1.4 3.1 1007.3 2.1920 20.8000
21:42 7.1 7.1 100 301 1.4 3.1 1007.3 2.3290 21.3000
21:52 7 7 100 276 1.4 3.1 1007.3 2.6030 21.8000
22:02 7 7 100 297 1.4 3.1 1007.4 2.3290 22.1000
22:12 6.9 6.9 100 289 1.9 5 1007.5 2.1920 22.2000
22:22 6.8 6.7 99 299 1.7 4.4 1007.6 1.9180 22.4000
22:32 6.8 6.7 99 286 1.4 3.9 1007.7 1.6440 22.5000
22:42 6.7 6.6 99 278 1.1 3.1 1007.6 1.2330 22.5000
22:52 6.7 6.6 99 291 1.9 5.3 1007.7 0.6850 22.5000
23:02 6.6 6.3 98 292 1.4 3.9 1007.9 0.4110 22.5000
23:12 6.6 6.3 98 295 1.7 3.9 1008 0.2740 22.5000
23:22 6.6 6.2 97 291 1.9 4.7 1008 0.1370 22.5000
23:32 6.5 6.1 97 286 1.4 3.1 1008 0.0000 22.5000
23:42 6.5 5.9 96 282 1.4 3.9 1008.3 0.0000 22.5000
23:53 6.4 5.8 96 276 1.4 3.9 1008.4 0.0000

DAY STATISTIC

2019-11-18
TEMPERATURE
AVERAGE
5.9
HIGH
7.1
20:41
LOW
4.1
00:05
PRESSURE
AVERAGE
1006.8
HIGH
1009.2
00:15
LOW
1005.6
12:25
DEWPOINT
AVERAGE
5.7
HIGH
7.1
20:41
LOW
3.5
00:05
HUMIDITY
AVERAGE
99
HIGH
100
09:34
LOW
96
00:05
WIND SPEED
AVERAGE
1.3
HIGH
2.5
01:36
WIND GUST
AVERAGE
3.5
HIGH
6.7
01:46
WIND DIRECTION
PREVAILING
NW
79%
N
0.7
NE
0.7
E
0.0
SE
0.0
S
0.0
SW
0.7
W
18.9
NW
79.0
PRECIPITATION
RAIN HOUR
3.7
RAIN DAY
22.5
TEMPERATURE (°C)
LOW
4.1
HIGH
7.1
AVERAGE
5.9
PRESSURE (hpa)
LOW
1005.6
HIGH
1009.2
AVERAGE
1006.8
DEVICE